Time;durP1;ratioP1;P1;durP2;ratioP2;P2;SDS_P1;SDS_P2;PMS_P1;PMS_P2;Temp;Humidity;BMP_temperature;BMP_pressure;BME280_temperature;BME280_humidity;BME280_pressure;Samples;Min_cycle;Max_cycle;Signal;HPM_P1;HPM_P2
2024/01/21 00:07:09;;;;;;;0.20;0.00;;;-5.40;76.30;;;;;;20887876;28;20098;-42
2024/01/21 00:17:12;;;;;;;0.20;0.00;;;-5.60;76.60;;;;;;20908124;28;20101;-44
2024/01/21 00:27:14;;;;;;;0.20;0.00;;;-5.60;76.40;;;;;;20907218;28;20090;-41
2024/01/21 00:37:16;;;;;;;0.10;0.00;;;-5.50;75.00;;;;;;20889231;28;21138;-42
2024/01/21 00:47:21;;;;;;;0.00;0.00;;;-5.60;75.70;;;;;;20867028;28;20045;-42
2024/01/21 00:57:23;;;;;;;0.10;0.00;;;-5.70;78.30;;;;;;20867138;28;20040;-43
2024/01/21 01:07:25;;;;;;;0.20;0.00;;;-5.80;78.30;;;;;;20863591;28;20451;-41
2024/01/21 01:17:27;;;;;;;0.32;0.00;;;-5.80;78.60;;;;;;20836165;28;21510;-44
2024/01/21 01:27:29;;;;;;;0.00;0.00;;;-5.80;79.80;;;;;;20862281;28;20048;-42
2024/01/21 01:37:31;;;;;;;0.20;0.00;;;-5.90;80.60;;;;;;20860266;28;20056;-43
2024/01/21 01:47:36;;;;;;;0.00;0.00;;;-5.90;81.20;;;;;;20878807;28;20075;-44
2024/01/21 01:57:37;;;;;;;0.05;0.00;;;-5.60;79.40;;;;;;20875776;28;20044;-42
2024/01/21 02:07:39;;;;;;;0.00;0.00;;;-5.60;80.10;;;;;;20877710;28;20185;-42
2024/01/21 02:17:41;;;;;;;0.00;0.00;;;-5.80;78.50;;;;;;20856141;28;20866;-41
2024/01/21 02:27:43;;;;;;;0.20;0.00;;;-5.60;81.00;;;;;;20873777;28;20066;-42
2024/01/21 02:37:44;;;;;;;0.10;0.00;;;-5.60;79.90;;;;;;20874980;28;20048;-41
2024/01/21 02:47:46;;;;;;;0.00;0.00;;;-5.50;76.30;;;;;;20871702;28;20063;-41
2024/01/21 02:57:51;;;;;;;0.10;0.00;;;-5.30;78.50;;;;;;20873916;28;20955;-44
2024/01/21 03:07:52;;;;;;;0.10;0.00;;;-5.70;80.30;;;;;;20872473;28;20036;-41
2024/01/21 03:17:54;;;;;;;0.00;0.00;;;-5.70;78.90;;;;;;20872550;28;20097;-42
2024/01/21 03:27:56;;;;;;;0.00;0.00;;;-5.40;77.00;;;;;;20872301;28;20565;-41
2024/01/21 03:37:57;;;;;;;0.00;0.00;;;-5.30;73.80;;;;;;20869415;28;20121;-41
2024/01/21 03:47:59;;;;;;;0.00;0.00;;;-5.30;78.80;;;;;;20867594;28;20028;-44
2024/01/21 03:58:01;;;;;;;1.08;0.30;;;-5.20;75.40;;;;;;20865686;28;20094;-42
2024/01/21 04:08:05;;;;;;;0.08;0.00;;;-5.30;72.70;;;;;;20869864;28;20032;-41
2024/01/21 04:18:07;;;;;;;0.00;0.00;;;-5.20;74.60;;;;;;20869701;28;20587;-42
2024/01/21 04:28:12;;;;;;;0.00;0.00;;;-5.40;77.20;;;;;;20864490;28;20097;-45
2024/01/21 04:38:13;;;;;;;0.22;0.00;;;-5.40;75.30;;;;;;20866128;28;20074;-42
2024/01/21 04:48:15;;;;;;;0.00;0.00;;;-5.20;76.50;;;;;;20866183;28;20105;-41
2024/01/21 04:58:17;;;;;;;0.00;0.00;;;-5.10;75.20;;;;;;20875956;28;20033;-42
2024/01/21 05:08:19;;;;;;;0.00;0.00;;;-5.20;76.00;;;;;;20881678;28;20113;-41
2024/01/21 05:18:24;;;;;;;0.00;0.00;;;-5.30;78.40;;;;;;20881889;28;20090;-42
2024/01/21 05:28:26;;;;;;;0.00;0.00;;;-5.40;78.40;;;;;;20879688;28;20423;-41
2024/01/21 05:38:28;;;;;;;0.10;0.00;;;-5.20;77.10;;;;;;20887455;28;20052;-41
2024/01/21 05:48:30;;;;;;;0.22;0.00;;;-5.20;77.50;;;;;;20917323;28;20039;-42
2024/01/21 05:58:31;;;;;;;0.13;0.00;;;-5.30;75.60;;;;;;20919797;28;20559;-42
2024/01/21 06:08:33;;;;;;;0.08;0.00;;;-5.30;76.50;;;;;;20916515;28;20032;-41
2024/01/21 06:18:35;;;;;;;0.08;0.00;;;-4.90;72.50;;;;;;20915893;28;20040;-41
2024/01/21 06:28:36;;;;;;;0.00;0.00;;;-5.00;74.60;;;;;;20894265;28;20044;-41
2024/01/21 06:38:39;;;;;;;0.00;0.00;;;-5.20;73.80;;;;;;20912388;28;20807;-41
2024/01/21 06:48:41;;;;;;;0.00;0.00;;;-5.10;74.10;;;;;;20911619;28;20069;-42
2024/01/21 06:58:42;;;;;;;0.00;0.00;;;-4.90;73.40;;;;;;20912044;28;20089;-41
2024/01/21 07:08:44;;;;;;;0.05;0.00;;;-4.70;72.50;;;;;;20909909;28;21751;-42
2024/01/21 07:18:46;;;;;;;0.20;0.00;;;-4.60;71.80;;;;;;20906891;28;20040;-42
2024/01/21 07:28:47;;;;;;;0.03;0.00;;;-4.40;69.30;;;;;;20909248;28;20097;-42
2024/01/21 07:38:49;;;;;;;0.00;0.00;;;-3.90;71.90;;;;;;20863361;28;20097;-43
2024/01/21 07:48:51;;;;;;;0.00;0.00;;;-3.80;71.80;;;;;;20866234;28;20048;-41
2024/01/21 07:58:53;;;;;;;0.30;0.20;;;-3.40;69.80;;;;;;20864668;28;20571;-41
2024/01/21 08:08:54;;;;;;;0.57;0.20;;;-2.60;69.40;;;;;;20865145;28;21348;-41
2024/01/21 08:18:56;;;;;;;0.13;0.00;;;-1.90;69.90;;;;;;20867084;28;20037;-41
2024/01/21 08:29:01;;;;;;;0.00;0.00;;;-1.20;67.60;;;;;;20864696;28;20179;-43
2024/01/21 08:39:09;;;;;;;0.20;0.08;;;-0.30;65.50;;;;;;20889154;28;20052;-42
2024/01/21 08:49:10;;;;;;;0.05;0.00;;;0.90;63.40;;;;;;20901780;28;20086;-42
2024/01/21 08:59:15;;;;;;;0.00;0.00;;;1.80;59.60;;;;;;20903711;28;20085;-41
2024/01/21 09:09:17;;;;;;;0.10;0.00;;;2.60;57.80;;;;;;20902626;28;20493;-46
2024/01/21 09:19:24;;;;;;;0.50;0.10;;;3.40;52.70;;;;;;20904649;28;20036;-43
2024/01/21 09:29:27;;;;;;;0.05;0.00;;;4.10;57.90;;;;;;20902875;28;20032;-43
2024/01/21 09:39:28;;;;;;;0.20;0.10;;;4.60;52.20;;;;;;20876548;28;20060;-44
2024/01/21 09:49:34;;;;;;;0.85;0.10;;;5.20;53.30;;;;;;20869669;28;20040;-43
2024/01/21 09:59:36;;;;;;;0.68;0.13;;;5.60;52.80;;;;;;20872829;28;20108;-45
2024/01/21 10:09:40;;;;;;;0.20;0.00;;;5.90;52.80;;;;;;20874198;28;20039;-43
2024/01/21 10:19:44;;;;;;;1.73;0.20;;;5.80;51.60;;;;;;20872699;28;20090;-43
2024/01/21 10:29:46;;;;;;;0.30;0.10;;;6.10;52.90;;;;;;20874243;28;20086;-45
2024/01/21 10:39:49;;;;;;;0.28;0.10;;;6.10;50.80;;;;;;20898283;28;20679;-47
2024/01/21 10:49:50;;;;;;;0.25;0.10;;;6.50;55.30;;;;;;20907406;28;20117;-45
2024/01/21 10:59:53;;;;;;;1.35;0.20;;;6.60;55.00;;;;;;20909921;28;20040;-43
2024/01/21 11:09:56;;;;;;;0.30;0.20;;;6.40;53.20;;;;;;20908288;28;20035;-45
2024/01/21 11:19:58;;;;;;;0.90;0.35;;;6.20;53.00;;;;;;20908487;28;20113;-44
2024/01/21 11:30:01;;;;;;;1.40;0.60;;;6.40;54.10;;;;;;20908229;28;20074;-44
2024/01/21 11:40:04;;;;;;;1.10;0.52;;;6.70;54.40;;;;;;20907068;28;20040;-45
2024/01/21 11:50:06;;;;;;;0.43;0.25;;;6.70;53.80;;;;;;20904770;28;20040;-43
2024/01/21 12:00:08;;;;;;;2.33;0.40;;;6.90;54.20;;;;;;20904900;28;20040;-44
2024/01/21 12:10:22;;;;;;;0.68;0.25;;;6.90;55.30;;;;;;20904752;28;20040;-47
2024/01/21 12:20:24;;;;;;;0.80;0.38;;;7.30;55.10;;;;;;20903067;28;20032;-45
2024/01/21 12:30:26;;;;;;;0.90;0.40;;;7.40;55.20;;;;;;20903291;28;20105;-47
2024/01/21 12:40:28;;;;;;;0.75;0.30;;;7.40;52.90;;;;;;20903215;28;20101;-44
2024/01/21 12:50:30;;;;;;;2.08;0.50;;;7.00;54.40;;;;;;20903770;28;20090;-44
2024/01/21 13:00:31;;;;;;;1.40;0.50;;;6.30;56.20;;;;;;20901526;28;20062;-46
2024/01/21 13:10:33;;;;;;;1.45;0.70;;;6.10;59.70;;;;;;20902471;28;20160;-43
2024/01/21 13:20:35;;;;;;;1.20;0.57;;;5.70;57.50;;;;;;20913267;28;20062;-48
2024/01/21 13:30:43;;;;;;;0.80;0.40;;;5.00;55.70;;;;;;20916345;28;20028;-45
2024/01/21 13:40:46;;;;;;;1.20;0.50;;;4.80;59.60;;;;;;20916924;28;20768;-44
2024/01/21 13:50:49;;;;;;;1.05;0.60;;;4.60;59.40;;;;;;20914993;28;20040;-44
2024/01/21 14:00:50;;;;;;;0.93;0.47;;;4.50;59.10;;;;;;20913452;28;20028;-45
2024/01/21 14:10:52;;;;;;;1.70;0.60;;;4.50;62.40;;;;;;20912735;28;20113;-45
2024/01/21 14:20:54;;;;;;;2.10;0.68;;;4.20;57.50;;;;;;20910851;28;20056;-47
2024/01/21 14:30:56;;;;;;;1.73;0.70;;;4.10;61.60;;;;;;20914154;28;20051;-44
2024/01/21 14:40:57;;;;;;;1.27;0.80;;;3.90;62.50;;;;;;20913751;28;20044;-46
2024/01/21 14:51:00;;;;;;;1.73;0.82;;;3.70;63.70;;;;;;20911656;28;20044;-44
2024/01/21 15:01:03;;;;;;;2.15;0.60;;;3.40;61.60;;;;;;20910474;28;20039;-44
2024/01/21 15:11:04;;;;;;;1.50;0.60;;;3.00;66.30;;;;;;20909619;28;20058;-45
2024/01/21 15:21:09;;;;;;;2.28;0.40;;;2.60;73.20;;;;;;20908310;28;20048;-44
2024/01/21 15:31:11;;;;;;;0.55;0.20;;;2.10;71.40;;;;;;20904835;28;20082;-45
2024/01/21 15:41:13;;;;;;;0.57;0.20;;;1.60;74.70;;;;;;20908506;28;20052;-43
2024/01/21 15:51:17;;;;;;;0.55;0.10;;;1.10;79.40;;;;;;20907134;28;20044;-44
2024/01/21 16:01:19;;;;;;;0.10;0.00;;;0.70;75.90;;;;;;20906211;28;20089;-45
2024/01/21 16:11:21;;;;;;;0.25;0.00;;;0.40;76.00;;;;;;20904484;28;20040;-43
2024/01/21 16:21:27;;;;;;;2.78;0.30;;;0.00;76.00;;;;;;20887919;28;20040;-46
2024/01/21 16:31:29;;;;;;;0.60;0.10;;;-0.30;75.20;;;;;;20910211;28;20117;-42
2024/01/21 16:41:32;;;;;;;0.20;0.10;;;-0.90;76.10;;;;;;20908481;28;20552;-41
2024/01/21 16:52:05;;;;;;;0.20;0.10;;;-1.30;75.30;;;;;;20915149;28;20098;-45
2024/01/21 17:02:17;;;;;;;0.40;0.10;;;-1.50;74.00;;;;;;20919418;28;20540;-42
2024/01/21 17:12:39;;;;;;;0.15;0.10;;;-0.80;72.40;;;;;;20923556;28;20044;-42
2024/01/21 17:22:42;;;;;;;0.30;0.08;;;-1.30;75.90;;;;;;20900163;28;20044;-44
2024/01/21 17:32:43;;;;;;;0.05;0.00;;;-1.60;74.90;;;;;;20922074;28;20028;-43
2024/01/21 17:42:45;;;;;;;1.08;0.20;;;-1.70;75.10;;;;;;20881843;28;20509;-43
2024/01/21 17:52:48;;;;;;;0.08;0.00;;;-1.70;73.90;;;;;;20876028;28;21333;-43
2024/01/21 18:02:49;;;;;;;0.00;0.00;;;-1.70;73.90;;;;;;20875087;28;20135;-43
2024/01/21 18:12:51;;;;;;;0.10;0.00;;;-1.80;75.20;;;;;;20856729;28;20387;-43
2024/01/21 18:22:54;;;;;;;0.08;0.00;;;-1.80;73.50;;;;;;20876565;28;20032;-43
2024/01/21 18:32:56;;;;;;;0.17;0.05;;;-1.70;73.40;;;;;;20876264;28;20044;-44
2024/01/21 18:42:59;;;;;;;0.00;0.00;;;-1.70;72.20;;;;;;20916938;28;20048;-43
2024/01/21 18:53:04;;;;;;;0.00;0.00;;;-1.60;72.30;;;;;;20913847;28;20032;-42
2024/01/21 19:03:06;;;;;;;0.22;0.10;;;-1.60;71.30;;;;;;20893525;28;20894;-45
2024/01/21 19:13:08;;;;;;;0.10;0.00;;;-1.50;73.20;;;;;;20912705;28;20044;-45
2024/01/21 19:23:13;;;;;;;1.15;0.43;;;-1.40;66.10;;;;;;20912347;28;20047;-42
2024/01/21 19:33:14;;;;;;;19.60;4.85;;;-1.30;68.80;;;;;;20909017;28;20058;-42
2024/01/21 19:43:22;;;;;;;0.08;0.00;;;-1.50;69.30;;;;;;20872013;28;20401;-44
2024/01/21 19:53:26;;;;;;;0.03;0.00;;;-1.40;69.10;;;;;;20866581;28;20656;-42
2024/01/21 20:03:29;;;;;;;0.32;0.10;;;-1.80;68.80;;;;;;20867352;28;20048;-42
2024/01/21 20:13:30;;;;;;;0.43;0.00;;;-1.90;68.80;;;;;;20869252;28;20044;-42
2024/01/21 20:23:32;;;;;;;0.38;0.00;;;-1.90;70.90;;;;;;20867983;28;20044;-43
2024/01/21 20:33:35;;;;;;;0.40;0.20;;;-1.90;71.40;;;;;;20869919;28;20077;-42
2024/01/21 20:43:37;;;;;;;0.00;0.00;;;-1.80;66.60;;;;;;20907973;28;20040;-42
2024/01/21 20:53:41;;;;;;;0.17;0.10;;;-1.80;68.20;;;;;;20906191;28;20085;-42
2024/01/21 21:03:46;;;;;;;0.10;0.00;;;-1.90;70.70;;;;;;20905032;28;20093;-42
2024/01/21 21:13:48;;;;;;;0.00;0.00;;;-2.10;69.40;;;;;;20906449;28;20663;-42
2024/01/21 21:23:50;;;;;;;0.00;0.00;;;-2.10;68.60;;;;;;20886976;28;20583;-42
2024/01/21 21:33:51;;;;;;;0.10;0.00;;;-2.10;70.30;;;;;;20902558;28;20138;-42
2024/01/21 21:43:53;;;;;;;0.20;0.10;;;-1.70;69.10;;;;;;20878183;28;20047;-42
2024/01/21 21:53:55;;;;;;;0.00;0.00;;;-1.90;67.90;;;;;;20878166;28;20093;-42
2024/01/21 22:03:56;;;;;;;0.15;0.00;;;-1.80;67.30;;;;;;20876392;28;21183;-42
2024/01/21 22:13:58;;;;;;;0.00;0.00;;;-1.80;65.00;;;;;;20875623;28;20097;-42
2024/01/21 22:24:00;;;;;;;0.00;0.00;;;-2.00;66.20;;;;;;20878791;28;20354;-43
2024/01/21 22:34:03;;;;;;;0.00;0.00;;;-1.60;66.00;;;;;;20877575;28;20101;-42
2024/01/21 22:44:05;;;;;;;0.40;0.00;;;-1.80;66.50;;;;;;20896627;28;20921;-42
2024/01/21 22:54:08;;;;;;;0.00;0.00;;;-1.90;67.80;;;;;;20914272;28;20632;-41
2024/01/21 23:04:09;;;;;;;0.00;0.00;;;-2.00;67.00;;;;;;20912585;28;20490;-41
2024/01/21 23:14:11;;;;;;;0.20;0.00;;;-2.10;68.00;;;;;;20909977;28;20188;-44
2024/01/21 23:24:12;;;;;;;0.00;0.00;;;-1.70;66.50;;;;;;20892191;28;20093;-42
2024/01/21 23:34:17;;;;;;;0.10;0.00;;;-2.00;66.70;;;;;;20911862;28;20105;-42
2024/01/21 23:44:19;;;;;;;0.00;0.00;;;-2.00;67.80;;;;;;20910074;28;21217;-44
2024/01/21 23:54:21;;;;;;;0.00;0.00;;;-2.10;69.40;;;;;;20909326;28;20051;-42
